Verwoerd International Airport

Airport
ICAO code: 
FAPE
IATA Code: 
PLZ
Summary
ICAO Region: 
AFI
Territory: 
Location: 
, Eastern Cape
Serving: 
Port Elizabeth
Elevation: 
226 ft
Coordinates: 
Aerial View: 
33° 59' 5.708" S, 25° 37' 2.19" E
Metar
Observation
FAPE 040100Z 18002KT CAVOK 15/13 Q1015 NOSIG
Station
Port Elizabeth, Port E Apt
Date/Time
2021-12-04 01:00:00
Wind direction
180°
Wind speed
02 kts
Lowest cloud amount
clouds and visibility OK
Temperature
15°C
Dew point
13°C
Humidity
87%
QNH
1015 hPa
Weather condition
n/a

Runways

Designator Length Width Surface Rops
10/28 1178 18 GRS No/No
17/35 1677 46 ASP Yes/Yes
8/26 1980 46 ASP Yes/Yes
Airport map: 
Aerial View: 

SKYbrary Partners:

Safety knowledge contributed by: